sensor_id;sensor_type;location;lat;lon;timestamp;pressure;altitude;pressure_sealevel;temperature;humidity
28027;BME280;15344;52.342;-1.290;2024-01-15T00:01:57;99661.43;;;5.81;63.91
28027;BME280;15344;52.342;-1.290;2024-01-15T00:04:23;99663.73;;;6.05;64.40
28027;BME280;15344;52.342;-1.290;2024-01-15T00:06:50;99662.40;;;5.49;63.72
28027;BME280;15344;52.342;-1.290;2024-01-15T00:09:14;99660.01;;;5.21;65.87
28027;BME280;15344;52.342;-1.290;2024-01-15T00:11:40;99653.46;;;5.76;64.95
28027;BME280;15344;52.342;-1.290;2024-01-15T00:14:05;99648.76;;;5.94;64.46
28027;BME280;15344;52.342;-1.290;2024-01-15T00:16:31;99645.96;;;5.98;63.88
28027;BME280;15344;52.342;-1.290;2024-01-15T00:18:57;99643.12;;;5.27;63.45
28027;BME280;15344;52.342;-1.290;2024-01-15T00:21:22;99640.38;;;5.78;63.28
28027;BME280;15344;52.342;-1.290;2024-01-15T00:23:48;99636.82;;;4.47;66.50
28027;BME280;15344;52.342;-1.290;2024-01-15T00:26:14;99631.54;;;5.20;65.21
28027;BME280;15344;52.342;-1.290;2024-01-15T00:28:39;99624.28;;;5.05;65.62
28027;BME280;15344;52.342;-1.290;2024-01-15T00:31:05;99619.22;;;5.37;64.79
28027;BME280;15344;52.342;-1.290;2024-01-15T00:33:31;99618.26;;;5.34;64.77
28027;BME280;15344;52.342;-1.290;2024-01-15T00:35:56;99614.85;;;4.67;65.41
28027;BME280;15344;52.342;-1.290;2024-01-15T00:38:22;99609.53;;;4.96;64.50
28027;BME280;15344;52.342;-1.290;2024-01-15T00:40:48;99604.75;;;5.42;64.18
28027;BME280;15344;52.342;-1.290;2024-01-15T00:43:13;99605.42;;;5.22;64.33
28027;BME280;15344;52.342;-1.290;2024-01-15T00:45:38;99604.29;;;5.69;63.34
28027;BME280;15344;52.342;-1.290;2024-01-15T00:48:04;99600.21;;;3.92;67.11
28027;BME280;15344;52.342;-1.290;2024-01-15T00:50:30;99599.89;;;5.55;63.88
28027;BME280;15344;52.342;-1.290;2024-01-15T00:52:55;99600.51;;;5.33;64.83
28027;BME280;15344;52.342;-1.290;2024-01-15T00:55:21;99602.74;;;5.29;63.91
28027;BME280;15344;52.342;-1.290;2024-01-15T00:57:46;99606.19;;;5.42;63.87
28027;BME280;15344;52.342;-1.290;2024-01-15T01:00:13;99605.27;;;5.65;63.22
28027;BME280;15344;52.342;-1.290;2024-01-15T01:02:38;99607.16;;;5.47;63.51
28027;BME280;15344;52.342;-1.290;2024-01-15T01:05:04;99605.52;;;4.99;64.54
28027;BME280;15344;52.342;-1.290;2024-01-15T01:07:29;99612.43;;;5.43;64.13
28027;BME280;15344;52.342;-1.290;2024-01-15T01:09:55;99608.28;;;4.71;65.32
28027;BME280;15344;52.342;-1.290;2024-01-15T01:12:21;99609.99;;;5.13;64.42
28027;BME280;15344;52.342;-1.290;2024-01-15T01:14:46;99609.87;;;5.18;63.83
28027;BME280;15344;52.342;-1.290;2024-01-15T01:17:12;99610.29;;;5.29;64.20
28027;BME280;15344;52.342;-1.290;2024-01-15T01:19:37;99607.77;;;5.64;63.68
28027;BME280;15344;52.342;-1.290;2024-01-15T01:22:03;99605.36;;;5.73;63.94
28027;BME280;15344;52.342;-1.290;2024-01-15T01:24:29;99608.22;;;5.53;63.47
28027;BME280;15344;52.342;-1.290;2024-01-15T01:26:54;99606.04;;;5.38;64.51
28027;BME280;15344;52.342;-1.290;2024-01-15T01:29:20;99605.65;;;5.53;64.22
28027;BME280;15344;52.342;-1.290;2024-01-15T01:31:46;99605.88;;;5.64;63.39
28027;BME280;15344;52.342;-1.290;2024-01-15T01:34:14;99603.78;;;5.53;63.79
28027;BME280;15344;52.342;-1.290;2024-01-15T01:36:37;99599.73;;;5.85;63.55
28027;BME280;15344;52.342;-1.290;2024-01-15T01:39:03;99597.05;;;5.47;63.83
28027;BME280;15344;52.342;-1.290;2024-01-15T01:41:28;99595.78;;;5.61;63.41
28027;BME280;15344;52.342;-1.290;2024-01-15T01:43:54;99589.87;;;5.55;63.35
28027;BME280;15344;52.342;-1.290;2024-01-15T01:46:19;99587.86;;;4.89;65.24
28027;BME280;15344;52.342;-1.290;2024-01-15T01:48:45;99587.74;;;5.31;64.61
28027;BME280;15344;52.342;-1.290;2024-01-15T01:51:11;99584.58;;;5.68;63.53
28027;BME280;15344;52.342;-1.290;2024-01-15T01:53:38;99587.61;;;4.29;68.02
28027;BME280;15344;52.342;-1.290;2024-01-15T01:56:03;99589.05;;;5.37;65.55
28027;BME280;15344;52.342;-1.290;2024-01-15T01:58:28;99586.46;;;4.98;66.33
28027;BME280;15344;52.342;-1.290;2024-01-15T02:00:53;99586.02;;;5.08;65.64
28027;BME280;15344;52.342;-1.290;2024-01-15T02:03:19;99583.18;;;4.23;67.38
28027;BME280;15344;52.342;-1.290;2024-01-15T02:05:46;99585.82;;;5.00;66.36
28027;BME280;15344;52.342;-1.290;2024-01-15T02:08:10;99580.20;;;4.58;66.82
28027;BME280;15344;52.342;-1.290;2024-01-15T02:10:36;99578.73;;;4.82;66.31
28027;BME280;15344;52.342;-1.290;2024-01-15T02:13:05;99574.55;;;5.21;65.82
28027;BME280;15344;52.342;-1.290;2024-01-15T02:15:27;99569.57;;;5.46;65.12
28027;BME280;15344;52.342;-1.290;2024-01-15T02:17:58;99567.21;;;4.18;68.23
28027;BME280;15344;52.342;-1.290;2024-01-15T02:20:19;99570.22;;;4.47;67.70
28027;BME280;15344;52.342;-1.290;2024-01-15T02:22:44;99568.52;;;4.18;70.77
28027;BME280;15344;52.342;-1.290;2024-01-15T02:25:10;99568.75;;;4.27;70.26
28027;BME280;15344;52.342;-1.290;2024-01-15T02:27:36;99569.02;;;4.42;69.20
28027;BME280;15344;52.342;-1.290;2024-01-15T02:30:01;99574.32;;;4.78;68.18
28027;BME280;15344;52.342;-1.290;2024-01-15T02:32:27;99576.31;;;4.67;69.08
28027;BME280;15344;52.342;-1.290;2024-01-15T02:34:53;99578.07;;;4.89;68.83
28027;BME280;15344;52.342;-1.290;2024-01-15T02:37:18;99572.90;;;4.63;67.94
28027;BME280;15344;52.342;-1.290;2024-01-15T02:39:44;99570.27;;;4.63;67.79
28027;BME280;15344;52.342;-1.290;2024-01-15T02:42:10;99564.76;;;4.80;68.78
28027;BME280;15344;52.342;-1.290;2024-01-15T02:44:36;99563.67;;;4.80;67.98
28027;BME280;15344;52.342;-1.290;2024-01-15T02:47:01;99562.75;;;3.83;71.56
28027;BME280;15344;52.342;-1.290;2024-01-15T02:49:27;99567.87;;;3.79;73.42
28027;BME280;15344;52.342;-1.290;2024-01-15T02:51:52;99563.20;;;4.07;72.38
28027;BME280;15344;52.342;-1.290;2024-01-15T02:54:18;99561.97;;;4.51;71.40
28027;BME280;15344;52.342;-1.290;2024-01-15T02:56:44;99563.24;;;4.02;71.81
28027;BME280;15344;52.342;-1.290;2024-01-15T02:59:09;99567.41;;;3.52;74.58
28027;BME280;15344;52.342;-1.290;2024-01-15T03:01:35;99562.47;;;4.24;73.99
28027;BME280;15344;52.342;-1.290;2024-01-15T03:04:01;99567.05;;;3.30;79.59
28027;BME280;15344;52.342;-1.290;2024-01-15T03:06:27;99569.41;;;3.15;78.98
28027;BME280;15344;52.342;-1.290;2024-01-15T03:08:52;99566.28;;;4.23;74.66
28027;BME280;15344;52.342;-1.290;2024-01-15T03:11:18;99560.40;;;4.44;74.51
28027;BME280;15344;52.342;-1.290;2024-01-15T03:13:44;99562.85;;;3.41;77.52
28027;BME280;15344;52.342;-1.290;2024-01-15T03:16:10;99566.54;;;3.01;80.22
28027;BME280;15344;52.342;-1.290;2024-01-15T03:18:36;99564.21;;;4.25;76.18
28027;BME280;15344;52.342;-1.290;2024-01-15T03:21:01;99562.62;;;3.70;79.37
28027;BME280;15344;52.342;-1.290;2024-01-15T03:23:26;99567.08;;;3.38;82.50
28027;BME280;15344;52.342;-1.290;2024-01-15T03:25:52;99571.25;;;2.92;82.49
28027;BME280;15344;52.342;-1.290;2024-01-15T03:28:18;99561.33;;;2.51;88.26
28027;BME280;15344;52.342;-1.290;2024-01-15T03:30:44;99560.08;;;3.01;84.00
28027;BME280;15344;52.342;-1.290;2024-01-15T03:33:09;99557.18;;;2.47;88.23
28027;BME280;15344;52.342;-1.290;2024-01-15T03:35:35;99559.20;;;2.51;88.20
28027;BME280;15344;52.342;-1.290;2024-01-15T03:38:01;99554.72;;;1.95;91.48
28027;BME280;15344;52.342;-1.290;2024-01-15T03:40:26;99558.19;;;1.82;89.21
28027;BME280;15344;52.342;-1.290;2024-01-15T03:42:53;99553.60;;;2.52;87.47
28027;BME280;15344;52.342;-1.290;2024-01-15T03:45:18;99564.15;;;3.15;81.36
28027;BME280;15344;52.342;-1.290;2024-01-15T03:47:43;99566.19;;;3.08;83.89
28027;BME280;15344;52.342;-1.290;2024-01-15T03:50:09;99567.68;;;2.31;86.19
28027;BME280;15344;52.342;-1.290;2024-01-15T03:52:35;99574.19;;;2.51;84.98
28027;BME280;15344;52.342;-1.290;2024-01-15T03:55:01;99572.39;;;2.09;87.06
28027;BME280;15344;52.342;-1.290;2024-01-15T03:57:26;99573.17;;;2.19;86.03
28027;BME280;15344;52.342;-1.290;2024-01-15T03:59:52;99572.21;;;2.13;85.66
28027;BME280;15344;52.342;-1.290;2024-01-15T04:02:18;99572.99;;;2.66;79.64
28027;BME280;15344;52.342;-1.290;2024-01-15T04:04:44;99576.04;;;2.17;81.36
28027;BME280;15344;52.342;-1.290;2024-01-15T04:07:09;99586.88;;;0.60;91.11
28027;BME280;15344;52.342;-1.290;2024-01-15T04:09:35;99583.36;;;1.74;85.24
28027;BME280;15344;52.342;-1.290;2024-01-15T04:12:01;99582.36;;;3.16;78.55
28027;BME280;15344;52.342;-1.290;2024-01-15T04:14:26;99579.84;;;2.12;79.06
28027;BME280;15344;52.342;-1.290;2024-01-15T04:16:52;99583.97;;;1.85;80.60
28027;BME280;15344;52.342;-1.290;2024-01-15T04:19:18;99581.12;;;2.70;76.52
28027;BME280;15344;52.342;-1.290;2024-01-15T04:21:44;99579.00;;;2.53;77.34
28027;BME280;15344;52.342;-1.290;2024-01-15T04:24:09;99576.09;;;1.78;79.76
28027;BME280;15344;52.342;-1.290;2024-01-15T04:26:35;99571.35;;;1.69;78.92
28027;BME280;15344;52.342;-1.290;2024-01-15T04:29:01;99571.77;;;2.00;74.68
28027;BME280;15344;52.342;-1.290;2024-01-15T04:31:26;99577.07;;;1.31;77.88
28027;BME280;15344;52.342;-1.290;2024-01-15T04:33:52;99570.75;;;2.13;75.03
28027;BME280;15344;52.342;-1.290;2024-01-15T04:36:18;99574.52;;;2.37;73.04
28027;BME280;15344;52.342;-1.290;2024-01-15T04:38:44;99571.63;;;1.83;74.68
28027;BME280;15344;52.342;-1.290;2024-01-15T04:41:11;99570.61;;;2.83;69.69
28027;BME280;15344;52.342;-1.290;2024-01-15T04:43:35;99569.13;;;2.39;70.42
28027;BME280;15344;52.342;-1.290;2024-01-15T04:46:01;99573.20;;;2.66;69.52
28027;BME280;15344;52.342;-1.290;2024-01-15T04:48:27;99569.42;;;2.59;70.26
28027;BME280;15344;52.342;-1.290;2024-01-15T04:50:52;99567.97;;;2.21;69.37
28027;BME280;15344;52.342;-1.290;2024-01-15T04:53:18;99571.60;;;3.24;65.73
28027;BME280;15344;52.342;-1.290;2024-01-15T04:55:44;99578.06;;;2.88;65.19
28027;BME280;15344;52.342;-1.290;2024-01-15T04:58:09;99582.42;;;2.38;67.24
28027;BME280;15344;52.342;-1.290;2024-01-15T05:00:35;99577.36;;;2.89;66.08
28027;BME280;15344;52.342;-1.290;2024-01-15T05:03:01;99568.43;;;3.93;63.93
28027;BME280;15344;52.342;-1.290;2024-01-15T05:05:27;99564.21;;;3.73;63.17
28027;BME280;15344;52.342;-1.290;2024-01-15T05:07:52;99565.90;;;3.68;62.01
28027;BME280;15344;52.342;-1.290;2024-01-15T05:10:18;99561.76;;;3.86;61.67
28027;BME280;15344;52.342;-1.290;2024-01-15T05:12:44;99572.48;;;3.39;62.24
28027;BME280;15344;52.342;-1.290;2024-01-15T05:15:10;99578.16;;;2.61;63.59
28027;BME280;15344;52.342;-1.290;2024-01-15T05:17:35;99579.43;;;3.22;63.19
28027;BME280;15344;52.342;-1.290;2024-01-15T05:20:01;99580.34;;;3.58;62.22
28027;BME280;15344;52.342;-1.290;2024-01-15T05:22:27;99579.70;;;4.30;60.79
28027;BME280;15344;52.342;-1.290;2024-01-15T05:24:52;99577.54;;;3.89;61.04
28027;BME280;15344;52.342;-1.290;2024-01-15T05:27:18;99570.94;;;4.04;59.97
28027;BME280;15344;52.342;-1.290;2024-01-15T05:29:44;99570.30;;;3.75;60.35
28027;BME280;15344;52.342;-1.290;2024-01-15T05:32:10;99572.26;;;4.34;59.52
28027;BME280;15344;52.342;-1.290;2024-01-15T05:34:35;99572.03;;;2.95;61.17
28027;BME280;15344;52.342;-1.290;2024-01-15T05:37:01;99564.99;;;3.64;60.50
28027;BME280;15344;52.342;-1.290;2024-01-15T05:39:27;99557.86;;;3.97;60.13
28027;BME280;15344;52.342;-1.290;2024-01-15T05:41:53;99562.01;;;3.62;59.80
28027;BME280;15344;52.342;-1.290;2024-01-15T05:44:18;99563.35;;;3.05;61.41
28027;BME280;15344;52.342;-1.290;2024-01-15T05:46:45;99557.14;;;2.43;63.33
28027;BME280;15344;52.342;-1.290;2024-01-15T05:49:10;99555.11;;;3.38;61.99
28027;BME280;15344;52.342;-1.290;2024-01-15T05:51:35;99553.01;;;2.05;63.65
28027;BME280;15344;52.342;-1.290;2024-01-15T05:54:01;99553.29;;;3.21;61.45
28027;BME280;15344;52.342;-1.290;2024-01-15T05:56:27;99549.20;;;3.70;61.73
28027;BME280;15344;52.342;-1.290;2024-01-15T05:58:52;99545.19;;;3.64;60.98
28027;BME280;15344;52.342;-1.290;2024-01-15T06:01:19;99544.95;;;3.67;60.86
28027;BME280;15344;52.342;-1.290;2024-01-15T06:03:44;99545.12;;;3.99;61.16
28027;BME280;15344;52.342;-1.290;2024-01-15T06:06:11;99540.73;;;3.51;60.28
28027;BME280;15344;52.342;-1.290;2024-01-15T06:08:35;99540.08;;;3.84;61.11
28027;BME280;15344;52.342;-1.290;2024-01-15T06:11:07;99541.63;;;2.81;62.13
28027;BME280;15344;52.342;-1.290;2024-01-15T06:13:27;99538.25;;;3.10;61.72
28027;BME280;15344;52.342;-1.290;2024-01-15T06:15:53;99536.49;;;3.22;61.30
28027;BME280;15344;52.342;-1.290;2024-01-15T06:18:18;99539.59;;;3.38;61.17
28027;BME280;15344;52.342;-1.290;2024-01-15T06:20:44;99545.68;;;3.55;61.07
28027;BME280;15344;52.342;-1.290;2024-01-15T06:23:10;99550.65;;;3.92;59.90
28027;BME280;15344;52.342;-1.290;2024-01-15T06:25:35;99555.75;;;4.33;59.75
28027;BME280;15344;52.342;-1.290;2024-01-15T06:28:01;99556.84;;;4.23;59.43
28027;BME280;15344;52.342;-1.290;2024-01-15T06:30:27;99552.59;;;3.91;59.87
28027;BME280;15344;52.342;-1.290;2024-01-15T06:32:52;99548.47;;;4.74;57.86
28027;BME280;15344;52.342;-1.290;2024-01-15T06:35:18;99555.63;;;4.34;58.95
28027;BME280;15344;52.342;-1.290;2024-01-15T06:37:44;99557.24;;;3.95;60.66
28027;BME280;15344;52.342;-1.290;2024-01-15T06:40:10;99555.50;;;4.30;58.78
28027;BME280;15344;52.342;-1.290;2024-01-15T06:42:35;99559.34;;;4.13;58.47
28027;BME280;15344;52.342;-1.290;2024-01-15T06:45:01;99561.88;;;4.07;58.96
28027;BME280;15344;52.342;-1.290;2024-01-15T06:47:26;99569.67;;;3.96;58.98
28027;BME280;15344;52.342;-1.290;2024-01-15T06:49:52;99576.97;;;3.15;60.63
28027;BME280;15344;52.342;-1.290;2024-01-15T06:52:18;99579.70;;;3.30;60.88
28027;BME280;15344;52.342;-1.290;2024-01-15T06:54:44;99582.29;;;2.94;61.34
28027;BME280;15344;52.342;-1.290;2024-01-15T06:57:10;99577.31;;;3.24;61.79
28027;BME280;15344;52.342;-1.290;2024-01-15T06:59:35;99587.04;;;4.04;60.94
28027;BME280;15344;52.342;-1.290;2024-01-15T07:02:04;99595.32;;;3.55;61.03
28027;BME280;15344;52.342;-1.290;2024-01-15T07:04:27;99592.99;;;3.68;61.11
28027;BME280;15344;52.342;-1.290;2024-01-15T07:06:53;99586.24;;;3.42;61.47
28027;BME280;15344;52.342;-1.290;2024-01-15T07:09:18;99585.27;;;3.62;61.14
28027;BME280;15344;52.342;-1.290;2024-01-15T07:11:45;99576.87;;;3.27;62.00
28027;BME280;15344;52.342;-1.290;2024-01-15T07:14:10;99582.55;;;2.98;62.70
28027;BME280;15344;52.342;-1.290;2024-01-15T07:16:35;99585.44;;;1.82;69.31
28027;BME280;15344;52.342;-1.290;2024-01-15T07:19:01;99591.97;;;1.68;72.24
28027;BME280;15344;52.342;-1.290;2024-01-15T07:21:27;99592.36;;;1.83;71.69
28027;BME280;15344;52.342;-1.290;2024-01-15T07:23:52;99600.71;;;1.32;74.07
28027;BME280;15344;52.342;-1.290;2024-01-15T07:26:18;99598.43;;;1.47;75.76
28027;BME280;15344;52.342;-1.290;2024-01-15T07:28:44;99594.08;;;2.42;72.93
28027;BME280;15344;52.342;-1.290;2024-01-15T07:31:11;99604.58;;;1.19;76.01
28027;BME280;15344;52.342;-1.290;2024-01-15T07:33:36;99606.01;;;1.89;75.91
28027;BME280;15344;52.342;-1.290;2024-01-15T07:36:03;99609.88;;;1.79;76.06
28027;BME280;15344;52.342;-1.290;2024-01-15T07:38:27;99607.67;;;1.33;79.42
28027;BME280;15344;52.342;-1.290;2024-01-15T07:40:53;99608.69;;;1.43;79.96
28027;BME280;15344;52.342;-1.290;2024-01-15T07:43:19;99611.46;;;2.89;73.78
28027;BME280;15344;52.342;-1.290;2024-01-15T07:45:44;99616.19;;;2.00;77.64
28027;BME280;15344;52.342;-1.290;2024-01-15T07:48:10;99619.64;;;2.04;78.57
28027;BME280;15344;52.342;-1.290;2024-01-15T07:50:36;99622.39;;;0.94;83.93
28027;BME280;15344;52.342;-1.290;2024-01-15T07:53:02;99626.86;;;1.96;80.59
28027;BME280;15344;52.342;-1.290;2024-01-15T07:55:27;99625.26;;;1.59;82.31
28027;BME280;15344;52.342;-1.290;2024-01-15T07:57:53;99627.17;;;2.02;79.85
28027;BME280;15344;52.342;-1.290;2024-01-15T08:00:19;99634.21;;;1.68;80.02
28027;BME280;15344;52.342;-1.290;2024-01-15T08:02:45;99627.92;;;2.33;77.49
28027;BME280;15344;52.342;-1.290;2024-01-15T08:05:10;99637.20;;;1.73;78.37
28027;BME280;15344;52.342;-1.290;2024-01-15T08:07:37;99645.10;;;0.91;82.22
28027;BME280;15344;52.342;-1.290;2024-01-15T08:10:03;99640.34;;;2.69;77.22
28027;BME280;15344;52.342;-1.290;2024-01-15T08:12:28;99645.45;;;1.90;80.52
28027;BME280;15344;52.342;-1.290;2024-01-15T08:14:53;99641.62;;;3.00;74.95
28027;BME280;15344;52.342;-1.290;2024-01-15T08:17:19;99641.60;;;2.79;75.03
28027;BME280;15344;52.342;-1.290;2024-01-15T08:19:45;99643.51;;;2.44;73.47
28027;BME280;15344;52.342;-1.290;2024-01-15T08:22:11;99644.42;;;2.53;76.39
28027;BME280;15344;52.342;-1.290;2024-01-15T08:24:36;99641.10;;;3.53;73.48
28027;BME280;15344;52.342;-1.290;2024-01-15T08:27:03;99643.97;;;2.57;74.16
28027;BME280;15344;52.342;-1.290;2024-01-15T08:29:28;99644.15;;;2.99;72.08
28027;BME280;15344;52.342;-1.290;2024-01-15T08:31:54;99653.91;;;1.47;79.89
28027;BME280;15344;52.342;-1.290;2024-01-15T08:34:19;99652.16;;;2.26;76.69
28027;BME280;15344;52.342;-1.290;2024-01-15T08:36:45;99654.49;;;2.71;74.59
28027;BME280;15344;52.342;-1.290;2024-01-15T08:39:11;99662.32;;;3.00;72.87
28027;BME280;15344;52.342;-1.290;2024-01-15T08:41:36;99666.80;;;3.30;70.90
28027;BME280;15344;52.342;-1.290;2024-01-15T08:44:02;99676.31;;;2.44;74.35
28027;BME280;15344;52.342;-1.290;2024-01-15T08:46:28;99682.84;;;2.39;74.36
28027;BME280;15344;52.342;-1.290;2024-01-15T08:48:54;99690.83;;;1.72;75.36
28027;BME280;15344;52.342;-1.290;2024-01-15T08:51:19;99694.23;;;1.90;75.26
28027;BME280;15344;52.342;-1.290;2024-01-15T08:53:45;99691.41;;;2.67;73.38
28027;BME280;15344;52.342;-1.290;2024-01-15T08:56:11;99699.27;;;1.88;75.53
28027;BME280;15344;52.342;-1.290;2024-01-15T08:58:37;99703.80;;;2.40;74.17
28027;BME280;15344;52.342;-1.290;2024-01-15T09:01:03;99704.94;;;2.29;74.12
28027;BME280;15344;52.342;-1.290;2024-01-15T09:03:28;99706.83;;;1.91;75.72
28027;BME280;15344;52.342;-1.290;2024-01-15T09:05:54;99708.14;;;2.73;72.46
28027;BME280;15344;52.342;-1.290;2024-01-15T09:08:20;99706.80;;;2.47;71.66
28027;BME280;15344;52.342;-1.290;2024-01-15T09:10:45;99709.53;;;2.14;75.62
28027;BME280;15344;52.342;-1.290;2024-01-15T09:13:12;99706.63;;;2.22;72.79
28027;BME280;15344;52.342;-1.290;2024-01-15T09:15:37;99701.29;;;2.68;72.03
28027;BME280;15344;52.342;-1.290;2024-01-15T09:18:03;99708.46;;;1.78;74.24
28027;BME280;15344;52.342;-1.290;2024-01-15T09:20:28;99713.68;;;3.18;71.34
28027;BME280;15344;52.342;-1.290;2024-01-15T09:22:54;99715.17;;;2.89;71.91
28027;BME280;15344;52.342;-1.290;2024-01-15T09:25:20;99720.32;;;2.85;71.31
28027;BME280;15344;52.342;-1.290;2024-01-15T09:27:45;99725.51;;;1.81;74.65
28027;BME280;15344;52.342;-1.290;2024-01-15T09:30:12;99731.52;;;1.90;76.31
28027;BME280;15344;52.342;-1.290;2024-01-15T09:32:37;99733.09;;;2.55;72.88
28027;BME280;15344;52.342;-1.290;2024-01-15T09:35:03;99737.66;;;1.35;76.95
28027;BME280;15344;52.342;-1.290;2024-01-15T09:37:28;99746.34;;;2.24;73.30
28027;BME280;15344;52.342;-1.290;2024-01-15T09:39:54;99754.93;;;2.07;73.03
28027;BME280;15344;52.342;-1.290;2024-01-15T09:42:20;99751.71;;;1.91;74.62
28027;BME280;15344;52.342;-1.290;2024-01-15T09:44:46;99748.38;;;1.93;73.50
28027;BME280;15344;52.342;-1.290;2024-01-15T09:47:12;99747.95;;;1.88;73.37
28027;BME280;15344;52.342;-1.290;2024-01-15T09:49:37;99752.23;;;2.35;73.23
28027;BME280;15344;52.342;-1.290;2024-01-15T09:52:04;99746.93;;;2.36;71.73
28027;BME280;15344;52.342;-1.290;2024-01-15T09:54:29;99746.75;;;3.05;70.05
28027;BME280;15344;52.342;-1.290;2024-01-15T09:56:55;99754.75;;;1.53;72.44
28027;BME280;15344;52.342;-1.290;2024-01-15T09:59:20;99759.96;;;1.95;73.53
28027;BME280;15344;52.342;-1.290;2024-01-15T10:01:46;99758.39;;;2.19;71.19
28027;BME280;15344;52.342;-1.290;2024-01-15T10:04:12;99757.20;;;1.84;70.29
28027;BME280;15344;52.342;-1.290;2024-01-15T10:06:38;99760.43;;;2.36;71.99
28027;BME280;15344;52.342;-1.290;2024-01-15T10:09:03;99761.91;;;1.45;73.38
28027;BME280;15344;52.342;-1.290;2024-01-15T10:11:30;99763.18;;;1.97;73.24
28027;BME280;15344;52.342;-1.290;2024-01-15T10:13:55;99767.29;;;2.69;68.82
28027;BME280;15344;52.342;-1.290;2024-01-15T10:16:21;99761.00;;;3.46;65.73
28027;BME280;15344;52.342;-1.290;2024-01-15T10:18:46;99772.06;;;3.10;66.54
28027;BME280;15344;52.342;-1.290;2024-01-15T10:21:12;99777.22;;;2.15;68.34
28027;BME280;15344;52.342;-1.290;2024-01-15T10:23:37;99777.61;;;2.43;66.74
28027;BME280;15344;52.342;-1.290;2024-01-15T10:26:04;99777.66;;;1.08;71.04
28027;BME280;15344;52.342;-1.290;2024-01-15T10:28:30;99774.70;;;2.41;67.47
28027;BME280;15344;52.342;-1.290;2024-01-15T10:30:57;99769.39;;;2.30;68.52
28027;BME280;15344;52.342;-1.290;2024-01-15T10:33:22;99768.96;;;2.86;67.72
28027;BME280;15344;52.342;-1.290;2024-01-15T10:35:46;99770.90;;;2.69;65.19
28027;BME280;15344;52.342;-1.290;2024-01-15T10:38:12;99775.81;;;2.38;66.93
28027;BME280;15344;52.342;-1.290;2024-01-15T10:40:38;99772.93;;;1.94;66.89
28027;BME280;15344;52.342;-1.290;2024-01-15T10:43:04;99775.71;;;2.64;66.11
28027;BME280;15344;52.342;-1.290;2024-01-15T10:45:29;99775.91;;;2.97;65.66
28027;BME280;15344;52.342;-1.290;2024-01-15T10:47:55;99788.83;;;2.22;65.44
28027;BME280;15344;52.342;-1.290;2024-01-15T10:50:21;99792.56;;;2.47;64.91
28027;BME280;15344;52.342;-1.290;2024-01-15T10:52:46;99797.15;;;2.48;63.47
28027;BME280;15344;52.342;-1.290;2024-01-15T10:55:12;99800.70;;;2.07;64.48
28027;BME280;15344;52.342;-1.290;2024-01-15T10:57:38;99798.76;;;1.35;64.57
28027;BME280;15344;52.342;-1.290;2024-01-15T11:00:04;99797.39;;;1.81;64.33
28027;BME280;15344;52.342;-1.290;2024-01-15T11:02:29;99799.12;;;1.69;66.52
28027;BME280;15344;52.342;-1.290;2024-01-15T11:04:55;99798.27;;;2.15;63.59
28027;BME280;15344;52.342;-1.290;2024-01-15T11:07:22;99803.56;;;2.63;62.45
28027;BME280;15344;52.342;-1.290;2024-01-15T11:09:46;99802.13;;;2.96;61.36
28027;BME280;15344;52.342;-1.290;2024-01-15T11:12:13;99800.77;;;1.55;63.00
28027;BME280;15344;52.342;-1.290;2024-01-15T11:14:39;99804.65;;;1.65;63.59
28027;BME280;15344;52.342;-1.290;2024-01-15T11:17:03;99806.49;;;1.43;64.19
28027;BME280;15344;52.342;-1.290;2024-01-15T11:19:35;99813.08;;;1.97;62.68
28027;BME280;15344;52.342;-1.290;2024-01-15T11:21:55;99813.02;;;1.79;61.47
28027;BME280;15344;52.342;-1.290;2024-01-15T11:26:47;99815.90;;;2.56;59.93
28027;BME280;15344;52.342;-1.290;2024-01-15T11:34:03;99806.52;;;1.91;61.54
28027;BME280;15344;52.342;-1.290;2024-01-15T11:38:55;99809.89;;;2.59;62.35
28027;BME280;15344;52.342;-1.290;2024-01-15T11:41:20;99805.99;;;2.56;60.48
28027;BME280;15344;52.342;-1.290;2024-01-15T11:43:46;99808.94;;;2.30;59.69
28027;BME280;15344;52.342;-1.290;2024-01-15T11:46:12;99804.93;;;3.06;57.59
28027;BME280;15344;52.342;-1.290;2024-01-15T11:48:43;99797.43;;;3.25;58.28
28027;BME280;15344;52.342;-1.290;2024-01-15T11:51:04;99802.90;;;2.57;59.65
28027;BME280;15344;52.342;-1.290;2024-01-15T11:53:34;99803.77;;;2.50;57.92
28027;BME280;15344;52.342;-1.290;2024-01-15T11:55:58;99807.44;;;2.76;58.18
28027;BME280;15344;52.342;-1.290;2024-01-15T11:58:20;99811.40;;;1.55;58.58
28027;BME280;15344;52.342;-1.290;2024-01-15T12:00:48;99812.16;;;1.91;58.37
28027;BME280;15344;52.342;-1.290;2024-01-15T12:03:12;99811.41;;;1.75;60.25
28027;BME280;15344;52.342;-1.290;2024-01-15T12:05:38;99821.11;;;0.90;59.48
28027;BME280;15344;52.342;-1.290;2024-01-15T12:08:03;99821.10;;;1.24;60.23
28027;BME280;15344;52.342;-1.290;2024-01-15T12:10:30;99814.48;;;1.81;58.99
28027;BME280;15344;52.342;-1.290;2024-01-15T12:12:58;99813.34;;;1.18;59.10
28027;BME280;15344;52.342;-1.290;2024-01-15T12:15:20;99809.98;;;1.63;58.21
28027;BME280;15344;52.342;-1.290;2024-01-15T12:17:46;99811.84;;;3.05;56.64
28027;BME280;15344;52.342;-1.290;2024-01-15T12:20:12;99811.57;;;2.97;54.79
28027;BME280;15344;52.342;-1.290;2024-01-15T12:22:38;99811.31;;;3.16;54.25
28027;BME280;15344;52.342;-1.290;2024-01-15T12:25:02;99808.87;;;2.47;55.86
28027;BME280;15344;52.342;-1.290;2024-01-15T12:27:28;99811.75;;;3.34;56.77
28027;BME280;15344;52.342;-1.290;2024-01-15T12:29:53;99812.70;;;3.16;56.00
28027;BME280;15344;52.342;-1.290;2024-01-15T12:32:19;99814.77;;;2.74;53.77
28027;BME280;15344;52.342;-1.290;2024-01-15T12:34:44;99811.85;;;3.16;52.57
28027;BME280;15344;52.342;-1.290;2024-01-15T12:37:09;99803.92;;;2.24;53.34
28027;BME280;15344;52.342;-1.290;2024-01-15T12:39:35;99803.53;;;2.85;54.26
28027;BME280;15344;52.342;-1.290;2024-01-15T12:42:06;99800.38;;;1.52;54.50
28027;BME280;15344;52.342;-1.290;2024-01-15T12:44:26;99802.76;;;1.16;54.91
28027;BME280;15344;52.342;-1.290;2024-01-15T12:46:52;99795.00;;;1.09;54.76
28027;BME280;15344;52.342;-1.290;2024-01-15T12:49:17;99792.59;;;2.11;54.14
28027;BME280;15344;52.342;-1.290;2024-01-15T12:51:43;99789.64;;;2.24;53.45
28027;BME280;15344;52.342;-1.290;2024-01-15T12:54:09;99786.09;;;1.33;53.93
28027;BME280;15344;52.342;-1.290;2024-01-15T12:56:35;99792.51;;;2.05;54.57
28027;BME280;15344;52.342;-1.290;2024-01-15T12:59:00;99793.68;;;2.73;53.40
28027;BME280;15344;52.342;-1.290;2024-01-15T13:01:26;99793.61;;;2.17;52.55